createdAt,value
2022-09-24T00:00:32.755Z,12.95
2022-09-24T00:02:34.942Z,12.92
2022-09-24T00:04:37.278Z,12.91
2022-09-24T00:06:43.213Z,12.86
2022-09-24T00:08:49.610Z,12.86
2022-09-24T00:10:51.934Z,12.85
2022-09-24T00:12:54.032Z,12.81
2022-09-24T00:14:56.075Z,12.81
2022-09-24T00:16:59.328Z,12.76
2022-09-24T00:19:03.031Z,12.69
2022-09-24T00:21:14.828Z,12.58
2022-09-24T00:23:17.045Z,12.68
2022-09-24T00:25:37.747Z,12.63
2022-09-24T00:27:39.780Z,12.67
2022-09-24T00:29:42.315Z,12.55
2022-09-24T00:31:44.554Z,12.47
2022-09-24T00:33:46.711Z,12.49
2022-09-24T00:35:48.793Z,12.52
2022-09-24T00:38:02.329Z,12.50
2022-09-24T00:40:06.272Z,12.53
2022-09-24T00:42:10.389Z,12.50
2022-09-24T00:44:41.139Z,12.46
2022-09-24T00:47:02.240Z,12.41
2022-09-24T00:49:17.112Z,12.41
2022-09-24T00:51:25.659Z,12.41
2022-09-24T00:53:33.289Z,12.35
2022-09-24T00:55:37.160Z,12.37
2022-09-24T00:57:40.555Z,12.34
2022-09-24T00:59:44.156Z,12.36
2022-09-24T01:01:47.575Z,12.31
2022-09-24T01:03:51.692Z,12.31
2022-09-24T01:05:55.546Z,12.29
2022-09-24T01:07:58.385Z,12.30
2022-09-24T01:10:01.831Z,12.24
2022-09-24T01:12:48.683Z,12.12
2022-09-24T01:15:24.814Z,12.08
2022-09-24T01:17:48.585Z,12.11
2022-09-24T01:19:59.775Z,12.08
2022-09-24T01:22:08.343Z,12.11
2022-09-24T01:24:36.157Z,12.14
2022-09-24T01:27:06.084Z,12.13
2022-09-24T01:29:26.991Z,12.11
2022-09-24T01:31:42.010Z,12.13
2022-09-24T01:33:49.110Z,12.18
2022-09-24T01:35:55.552Z,12.15
2022-09-24T01:38:05.016Z,12.12
2022-09-24T01:40:10.944Z,12.14
2022-09-24T01:42:14.691Z,12.07
2022-09-24T01:44:18.614Z,12.07
2022-09-24T01:46:22.961Z,11.98
2022-09-24T01:48:30.603Z,11.91
2022-09-24T01:50:47.332Z,11.89
2022-09-24T01:52:56.181Z,11.95
2022-09-24T01:55:03.957Z,11.97
2022-09-24T01:57:13.655Z,11.93
2022-09-24T01:59:42.917Z,11.93
2022-09-24T02:02:16.405Z,11.87
2022-09-24T02:04:21.682Z,11.85
2022-09-24T02:06:31.827Z,11.82
2022-09-24T02:08:42.663Z,11.81
2022-09-24T02:10:55.827Z,11.76
2022-09-24T02:13:04.162Z,11.68
2022-09-24T02:15:13.340Z,11.64
2022-09-24T02:17:16.859Z,11.72
2022-09-24T02:19:24.387Z,11.66
2022-09-24T02:21:27.774Z,11.68
2022-09-24T02:23:32.545Z,11.64
2022-09-24T02:26:03.563Z,11.66
2022-09-24T02:28:05.584Z,11.71
2022-09-24T02:30:11.106Z,11.74
2022-09-24T02:32:18.376Z,11.63
2022-09-24T02:34:42.575Z,11.60
2022-09-24T02:36:44.860Z,11.64
2022-09-24T02:38:47.013Z,11.66
2022-09-24T02:40:49.987Z,11.64
2022-09-24T02:42:52.429Z,11.61
2022-09-24T02:44:57.575Z,11.47
2022-09-24T02:47:00.064Z,11.42
2022-09-24T02:49:02.551Z,11.31
2022-09-24T02:51:05.861Z,11.32
2022-09-24T02:53:08.105Z,11.39
2022-09-24T02:55:10.284Z,11.39
2022-09-24T02:57:12.695Z,11.45
2022-09-24T02:59:14.937Z,11.49
2022-09-24T03:01:17.060Z,11.47
2022-09-24T03:03:19.419Z,11.44
2022-09-24T03:05:22.304Z,11.39
2022-09-24T03:07:24.245Z,11.39
2022-09-24T03:09:26.289Z,11.26
2022-09-24T03:11:29.302Z,11.20
2022-09-24T03:13:31.671Z,11.22
2022-09-24T03:15:33.955Z,11.21
2022-09-24T03:17:36.410Z,11.26
2022-09-24T03:19:42.260Z,11.26
2022-09-24T03:21:49.329Z,11.24
2022-09-24T03:23:51.805Z,11.18
2022-09-24T03:25:58.836Z,11.05
2022-09-24T03:28:01.141Z,11.04
2022-09-24T03:30:22.613Z,11.13
2022-09-24T03:32:24.708Z,11.07
2022-09-24T03:34:26.858Z,11.09
2022-09-24T03:36:28.969Z,11.05
2022-09-24T03:38:31.116Z,11.07
2022-09-24T03:40:33.397Z,11.10
2022-09-24T03:42:35.776Z,11.04
2022-09-24T03:44:37.774Z,10.97
2022-09-24T03:46:39.878Z,11.00
2022-09-24T03:48:42.028Z,10.95
2022-09-24T03:50:44.444Z,10.90
2022-09-24T03:52:46.488Z,10.96
2022-09-24T03:54:48.881Z,11.00
2022-09-24T03:56:50.901Z,10.95
2022-09-24T03:58:53.561Z,10.93
2022-09-24T04:00:59.522Z,10.86
2022-09-24T04:03:01.481Z,10.80
2022-09-24T04:05:03.942Z,10.82
2022-09-24T04:07:06.199Z,10.82
2022-09-24T04:09:08.248Z,10.77
2022-09-24T04:11:10.256Z,10.70
2022-09-24T04:13:13.029Z,10.67
2022-09-24T04:15:18.420Z,10.65
2022-09-24T04:17:20.321Z,10.61
2022-09-24T04:19:22.655Z,10.57
2022-09-24T04:21:24.733Z,10.57
2022-09-24T04:23:29.424Z,10.53
2022-09-24T04:25:32.700Z,10.48
2022-09-24T04:27:36.802Z,10.39
2022-09-24T04:29:38.848Z,10.42
2022-09-24T04:31:41.103Z,10.44
2022-09-24T04:33:43.698Z,10.39
2022-09-24T04:35:46.017Z,10.41
2022-09-24T04:37:48.377Z,10.36
2022-09-24T04:39:50.423Z,10.36
2022-09-24T04:41:53.319Z,10.46
2022-09-24T04:43:57.656Z,10.46
2022-09-24T04:46:00.530Z,10.50
2022-09-24T04:48:02.995Z,10.46
2022-09-24T04:50:05.919Z,10.47
2022-09-24T04:52:09.020Z,10.42
2022-09-24T04:54:11.424Z,10.52
2022-09-24T04:56:14.618Z,10.49
2022-09-24T04:58:17.148Z,10.63
2022-09-24T05:00:21.488Z,10.65
2022-09-24T05:02:24.477Z,10.72
2022-09-24T05:04:26.693Z,10.71
2022-09-24T05:06:29.008Z,10.75
2022-09-24T05:08:31.189Z,10.75
2022-09-24T05:10:33.628Z,10.79
2022-09-24T05:12:37.949Z,10.82
2022-09-24T05:14:40.193Z,10.97
2022-09-24T05:16:42.428Z,11.03
2022-09-24T05:18:47.444Z,11.01
2022-09-24T05:20:49.839Z,11.10
2022-09-24T05:22:52.050Z,11.16
2022-09-24T05:24:54.587Z,11.35
2022-09-24T05:27:11.653Z,11.46
2022-09-24T05:29:14.291Z,11.57
2022-09-24T05:31:17.570Z,11.66
2022-09-24T05:33:19.531Z,11.73
2022-09-24T05:35:23.718Z,11.83
2022-09-24T05:37:25.813Z,11.84
2022-09-24T05:39:33.468Z,12.04
2022-09-24T05:41:36.050Z,12.15
2022-09-24T05:43:38.842Z,12.17
2022-09-24T05:45:43.771Z,12.11
2022-09-24T05:47:46.669Z,12.15
2022-09-24T05:49:49.341Z,12.14
2022-09-24T05:51:51.879Z,12.30
2022-09-24T05:53:54.558Z,12.40
2022-09-24T05:55:59.472Z,12.46
2022-09-24T05:58:10.795Z,12.50
2022-09-24T06:00:13.767Z,12.60
2022-09-24T06:02:16.459Z,12.71
2022-09-24T06:04:21.497Z,12.78
2022-09-24T06:06:25.199Z,12.92
2022-09-24T06:08:28.840Z,13.03
2022-09-24T06:10:31.054Z,12.96
2022-09-24T06:12:36.935Z,12.86
2022-09-24T06:14:39.448Z,13.08
2022-09-24T06:16:41.984Z,13.26
2022-09-24T06:18:45.560Z,13.22
2022-09-24T06:20:48.067Z,13.26
2022-09-24T06:22:50.785Z,13.30
2022-09-24T06:24:53.263Z,13.45
2022-09-24T06:26:55.451Z,13.47
2022-09-24T06:30:01.606Z,13.58
2022-09-24T06:32:04.381Z,13.82
2022-09-24T06:34:06.677Z,13.87
2022-09-24T06:36:09.160Z,14.01
2022-09-24T06:38:13.938Z,14.11
2022-09-24T06:40:16.839Z,14.18
2022-09-24T06:42:20.550Z,14.21
2022-09-24T06:44:23.002Z,14.38
2022-09-24T06:46:29.338Z,14.51
2022-09-24T06:48:34.353Z,14.67
2022-09-24T06:50:41.610Z,14.81
2022-09-24T06:52:44.092Z,14.90
2022-09-24T06:54:47.708Z,14.95
2022-09-24T06:56:51.578Z,15.09
2022-09-24T06:58:54.471Z,15.00
2022-09-24T07:00:59.442Z,15.12
2022-09-24T07:03:04.578Z,15.23
2022-09-24T07:05:09.987Z,15.24
2022-09-24T07:07:30.385Z,15.13
2022-09-24T07:09:33.050Z,15.38
2022-09-24T07:11:36.800Z,15.54
2022-09-24T07:13:38.832Z,15.67
2022-09-24T07:15:42.306Z,15.79
2022-09-24T07:17:45.035Z,15.94
2022-09-24T07:19:47.362Z,15.96
2022-09-24T07:21:49.480Z,16.07
2022-09-24T07:23:56.379Z,16.13
2022-09-24T07:26:03.118Z,16.25
2022-09-24T07:28:11.058Z,16.28
2022-09-24T07:30:16.113Z,16.37
2022-09-24T07:32:18.506Z,16.41
2022-09-24T07:34:20.986Z,16.48
2022-09-24T07:36:25.299Z,16.50
2022-09-24T07:38:27.618Z,16.56
2022-09-24T07:40:31.398Z,16.65
2022-09-24T07:42:33.835Z,16.80
2022-09-24T07:44:36.720Z,16.97
2022-09-24T07:46:39.101Z,17.06
2022-09-24T07:48:41.408Z,17.15
2022-09-24T07:50:43.627Z,17.22
2022-09-24T07:52:50.788Z,17.31
2022-09-24T07:54:54.614Z,17.39
2022-09-24T07:56:57.288Z,17.40
2022-09-24T07:58:59.559Z,17.50
2022-09-24T08:01:02.280Z,17.57
2022-09-24T08:03:05.828Z,17.62
2022-09-24T08:05:08.495Z,17.68
2022-09-24T08:07:12.023Z,17.72
2022-09-24T08:09:17.179Z,17.80
2022-09-24T08:11:20.140Z,17.90
2022-09-24T08:13:26.838Z,18.01
2022-09-24T08:15:33.429Z,18.05
2022-09-24T08:17:35.987Z,18.11
2022-09-24T08:19:40.102Z,18.21
2022-09-24T08:21:42.397Z,18.27
2022-09-24T08:23:45.123Z,18.29
2022-09-24T08:25:48.147Z,18.25
2022-09-24T08:27:50.380Z,18.29
2022-09-24T08:29:52.975Z,18.31
2022-09-24T08:31:55.800Z,18.31
2022-09-24T08:33:58.109Z,18.28
2022-09-24T08:36:01.745Z,18.25
2022-09-24T08:38:04.269Z,18.24
2022-09-24T08:40:07.329Z,18.26
2022-09-24T08:42:34.274Z,18.28
2022-09-24T08:45:04.178Z,18.39
2022-09-24T08:47:25.448Z,18.49
2022-09-24T08:49:46.541Z,18.55
2022-09-24T08:52:29.857Z,18.49
2022-09-24T08:54:35.788Z,18.59
2022-09-24T08:56:44.080Z,18.64
2022-09-24T08:59:21.618Z,18.68
2022-09-24T09:01:23.750Z,18.71
2022-09-24T09:03:40.986Z,18.75
2022-09-24T09:06:19.770Z,18.77
2022-09-24T09:09:06.442Z,18.84
2022-09-24T09:11:13.818Z,18.77
2022-09-24T09:13:25.721Z,18.79
2022-09-24T09:15:32.618Z,18.83
2022-09-24T09:17:55.325Z,18.82
2022-09-24T09:20:01.953Z,18.87
2022-09-24T09:22:15.280Z,18.88
2022-09-24T09:24:26.745Z,18.89
2022-09-24T09:26:32.022Z,18.93
2022-09-24T09:28:34.393Z,18.99
2022-09-24T09:30:49.054Z,19.01
2022-09-24T09:33:20.306Z,19.00
2022-09-24T09:36:03.869Z,18.99
2022-09-24T09:38:43.204Z,19.04
2022-09-24T09:40:59.428Z,19.10
2022-09-24T09:43:09.598Z,19.18
2022-09-24T09:45:27.968Z,19.24
2022-09-24T09:47:54.238Z,19.27
2022-09-24T09:50:04.243Z,19.34
2022-09-24T09:52:15.869Z,19.35
2022-09-24T09:54:17.888Z,19.46
2022-09-24T09:56:25.411Z,19.50
2022-09-24T09:58:31.307Z,19.58
2022-09-24T10:00:36.010Z,19.65
2022-09-24T10:02:43.816Z,19.66
2022-09-24T10:04:46.760Z,19.69
2022-09-24T10:06:48.962Z,19.76
2022-09-24T10:08:51.482Z,19.86
2022-09-24T10:11:01.361Z,19.87
2022-09-24T10:13:09.339Z,19.79
2022-09-24T10:15:24.517Z,19.79
2022-09-24T10:17:38.659Z,19.85
2022-09-24T10:20:15.928Z,19.75
2022-09-24T10:22:26.210Z,19.80
2022-09-24T10:24:30.088Z,19.94
2022-09-24T10:26:43.864Z,20.05
2022-09-24T10:29:08.808Z,20.11
2022-09-24T10:31:21.606Z,20.15
2022-09-24T10:33:36.054Z,20.02
2022-09-24T10:35:38.853Z,19.95
2022-09-24T10:38:00.278Z,19.94
2022-09-24T10:40:12.904Z,19.91
2022-09-24T10:42:26.212Z,19.85
2022-09-24T10:44:37.113Z,19.89
2022-09-24T10:46:48.445Z,19.96
2022-09-24T10:48:55.197Z,20.03
2022-09-24T10:51:17.718Z,20.06
2022-09-24T10:53:47.415Z,20.09
2022-09-24T10:55:55.799Z,20.18
2022-09-24T10:58:14.318Z,20.22
2022-09-24T11:00:30.155Z,20.29
2022-09-24T11:03:00.111Z,20.24
2022-09-24T11:05:12.329Z,20.21
2022-09-24T11:07:36.364Z,20.13
2022-09-24T11:10:13.334Z,20.16
2022-09-24T11:12:52.935Z,20.26
2022-09-24T11:15:22.237Z,20.36
2022-09-24T11:17:33.806Z,20.38
2022-09-24T11:20:00.615Z,20.38
2022-09-24T11:22:15.974Z,20.40
2022-09-24T11:24:46.065Z,20.50
2022-09-24T11:27:10.959Z,20.64
2022-09-24T11:29:37.035Z,20.63
2022-09-24T11:31:42.817Z,20.70
2022-09-24T11:34:22.033Z,20.71
2022-09-24T11:36:43.031Z,20.69
2022-09-24T11:39:12.871Z,20.77
2022-09-24T11:41:33.589Z,20.91
2022-09-24T11:43:35.864Z,20.99
2022-09-24T11:45:49.207Z,21.01
2022-09-24T11:48:00.116Z,21.04
2022-09-24T11:50:24.428Z,21.04
2022-09-24T11:52:48.212Z,21.03
2022-09-24T11:54:58.685Z,21.04
2022-09-24T11:57:13.353Z,21.09
2022-09-24T11:59:35.259Z,21.06
2022-09-24T12:01:41.238Z,21.08
2022-09-24T12:03:57.363Z,21.06
2022-09-24T12:06:09.765Z,21.02
2022-09-24T12:08:38.445Z,21.07
2022-09-24T12:10:48.942Z,20.88
2022-09-24T12:12:57.600Z,20.95
2022-09-24T12:15:08.744Z,20.93
2022-09-24T12:17:18.884Z,20.91
2022-09-24T12:19:23.571Z,20.82
2022-09-24T12:21:35.202Z,20.74
2022-09-24T12:23:45.160Z,20.84
2022-09-24T12:25:53.516Z,20.89
2022-09-24T12:27:56.841Z,20.87
2022-09-24T12:30:32.220Z,20.82
2022-09-24T12:32:56.378Z,20.78
2022-09-24T12:35:07.761Z,20.84
2022-09-24T12:37:14.465Z,20.91
2022-09-24T12:39:19.222Z,20.97
2022-09-24T12:41:27.511Z,21.03
2022-09-24T12:43:38.202Z,21.06
2022-09-24T12:45:40.555Z,21.03
2022-09-24T12:48:01.604Z,20.99
2022-09-24T12:50:06.718Z,20.99
2022-09-24T12:52:25.378Z,20.94
2022-09-24T12:54:35.379Z,20.94
2022-09-24T12:56:37.700Z,20.90
2022-09-24T12:58:42.057Z,20.84
2022-09-24T13:00:47.284Z,20.83
2022-09-24T13:02:49.721Z,20.81
2022-09-24T13:05:28.228Z,20.73
2022-09-24T13:07:39.854Z,20.71
2022-09-24T13:09:42.898Z,20.76
2022-09-24T13:11:45.584Z,20.77
2022-09-24T13:13:59.756Z,20.70
2022-09-24T13:16:08.020Z,20.64
2022-09-24T13:18:10.345Z,20.68
2022-09-24T13:20:28.881Z,20.59
2022-09-24T13:22:37.424Z,20.64
2022-09-24T13:24:50.952Z,20.65
2022-09-24T13:26:53.216Z,20.67
2022-09-24T13:29:04.227Z,20.65
2022-09-24T13:31:21.374Z,20.62
2022-09-24T13:33:45.448Z,20.66
2022-09-24T13:36:11.014Z,20.65
2022-09-24T13:38:27.478Z,20.61
2022-09-24T13:40:35.023Z,20.63
2022-09-24T13:43:00.849Z,20.61
2022-09-24T13:45:09.636Z,20.61
2022-09-24T13:47:37.637Z,20.59
2022-09-24T13:49:47.687Z,20.63
2022-09-24T13:52:31.128Z,20.62
2022-09-24T13:54:39.896Z,20.64
2022-09-24T13:56:44.099Z,20.65
2022-09-24T13:58:51.997Z,20.60
2022-09-24T14:00:55.224Z,20.66
2022-09-24T14:03:03.278Z,20.61
2022-09-24T14:05:17.611Z,20.63
2022-09-24T14:07:21.686Z,20.63
2022-09-24T14:09:23.637Z,20.62
2022-09-24T14:11:26.423Z,20.58
2022-09-24T14:13:28.479Z,20.60
2022-09-24T14:15:30.553Z,20.59
2022-09-24T14:17:32.752Z,20.51
2022-09-24T14:19:36.228Z,20.49
2022-09-24T14:21:58.832Z,20.38
2022-09-24T14:24:09.903Z,20.41
2022-09-24T14:26:36.647Z,20.37
2022-09-24T14:28:39.193Z,20.38
2022-09-24T14:31:00.231Z,20.32
2022-09-24T14:33:12.150Z,20.33
2022-09-24T14:35:29.858Z,20.30
2022-09-24T14:37:36.467Z,20.36
2022-09-24T14:39:43.677Z,20.28
2022-09-24T14:41:45.760Z,20.30
2022-09-24T14:43:53.662Z,20.30
2022-09-24T14:46:07.064Z,20.30
2022-09-24T14:48:30.409Z,20.22
2022-09-24T14:50:41.022Z,20.22
2022-09-24T14:52:56.818Z,20.24
2022-09-24T14:55:20.703Z,20.21
2022-09-24T14:57:26.027Z,20.27
2022-09-24T14:59:30.840Z,20.28
2022-09-24T15:01:33.978Z,20.31
2022-09-24T15:03:53.604Z,20.30
2022-09-24T15:06:12.643Z,20.27
2022-09-24T15:08:24.055Z,20.21
2022-09-24T15:10:26.093Z,20.15
2022-09-24T15:12:36.863Z,20.13
2022-09-24T15:14:39.208Z,20.16
2022-09-24T15:16:42.236Z,20.16
2022-09-24T15:18:44.606Z,20.13
2022-09-24T15:20:46.654Z,20.14
2022-09-24T15:22:49.097Z,20.14
2022-09-24T15:24:54.363Z,20.14
2022-09-24T15:27:01.077Z,20.09
2022-09-24T15:29:04.207Z,20.12
2022-09-24T15:31:06.361Z,20.12
2022-09-24T15:33:14.686Z,20.08
2022-09-24T15:35:17.255Z,20.12
2022-09-24T15:37:21.900Z,20.09
2022-09-24T15:39:25.950Z,20.07
2022-09-24T15:41:28.363Z,20.08
2022-09-24T15:43:30.356Z,20.06
2022-09-24T15:45:32.460Z,20.04
2022-09-24T15:47:34.520Z,20.05
2022-09-24T15:49:36.554Z,20.05
2022-09-24T15:51:40.364Z,20.03
2022-09-24T15:53:42.547Z,20.00
2022-09-24T15:55:48.662Z,19.98
2022-09-24T15:57:50.800Z,19.96
2022-09-24T15:59:53.694Z,19.95
2022-09-24T16:02:00.156Z,19.91
2022-09-24T16:04:02.545Z,19.87
2022-09-24T16:06:04.731Z,19.86
2022-09-24T16:08:06.797Z,19.84
2022-09-24T16:10:10.648Z,19.84
2022-09-24T16:12:16.479Z,19.78
2022-09-24T16:14:19.042Z,19.75
2022-09-24T16:16:22.775Z,19.68
2022-09-24T16:18:26.220Z,19.62
2022-09-24T16:20:30.903Z,19.57
2022-09-24T16:22:33.083Z,19.51
2022-09-24T16:24:35.366Z,19.47
2022-09-24T16:26:38.769Z,19.42
2022-09-24T16:28:40.731Z,19.38
2022-09-24T16:30:43.265Z,19.32
2022-09-24T16:32:48.111Z,19.25
2022-09-24T16:34:50.232Z,19.19
2022-09-24T16:36:55.501Z,19.14
2022-09-24T16:38:58.641Z,19.09
2022-09-24T16:41:01.052Z,19.04
2022-09-24T16:43:04.030Z,19.01
2022-09-24T16:45:07.190Z,18.94
2022-09-24T16:47:09.639Z,18.90
2022-09-24T16:49:12.684Z,18.86
2022-09-24T16:51:14.952Z,18.77
2022-09-24T16:53:17.150Z,18.73
2022-09-24T16:55:19.402Z,18.69
2022-09-24T16:57:21.470Z,18.66
2022-09-24T16:59:23.509Z,18.62
2022-09-24T17:01:25.815Z,18.59
2022-09-24T17:03:28.026Z,18.55
2022-09-24T17:05:30.120Z,18.50
2022-09-24T17:07:32.799Z,18.47
2022-09-24T17:09:53.533Z,18.40
2022-09-24T17:11:57.187Z,18.36
2022-09-24T17:14:00.668Z,18.31
2022-09-24T17:16:02.960Z,18.26
2022-09-24T17:18:05.221Z,18.22
2022-09-24T17:20:08.007Z,18.18
2022-09-24T17:22:10.393Z,18.15
2022-09-24T17:24:13.816Z,18.12
2022-09-24T17:26:23.029Z,18.07
2022-09-24T17:28:25.511Z,18.04
2022-09-24T17:30:27.519Z,17.98
2022-09-24T17:32:29.738Z,17.94
2022-09-24T17:34:31.923Z,17.90
2022-09-24T17:36:35.335Z,17.88
2022-09-24T17:38:38.226Z,17.84
2022-09-24T17:40:40.421Z,17.79
2022-09-24T17:42:45.919Z,17.76
2022-09-24T17:44:47.912Z,17.73
2022-09-24T17:46:50.197Z,17.70
2022-09-24T17:48:55.155Z,17.67
2022-09-24T17:50:59.507Z,17.66
2022-09-24T17:53:04.023Z,17.61
2022-09-24T17:55:08.554Z,17.58
2022-09-24T17:57:10.709Z,17.55
2022-09-24T17:59:16.952Z,17.52
2022-09-24T18:01:22.223Z,17.49
2022-09-24T18:03:24.631Z,17.44
2022-09-24T18:05:26.835Z,17.40
2022-09-24T18:07:30.032Z,17.37
2022-09-24T18:09:32.146Z,17.33
2022-09-24T18:11:40.077Z,17.29
2022-09-24T18:13:42.330Z,17.30
2022-09-24T18:15:44.355Z,17.28
2022-09-24T18:17:46.318Z,17.27
2022-09-24T18:19:48.339Z,17.25
2022-09-24T18:21:50.487Z,17.24
2022-09-24T18:23:56.724Z,17.18
2022-09-24T18:26:19.711Z,17.12
2022-09-24T18:28:22.788Z,17.16
2022-09-24T18:30:25.031Z,17.12
2022-09-24T18:32:33.198Z,17.08
2022-09-24T18:34:35.555Z,17.08
2022-09-24T18:36:39.802Z,17.05
2022-09-24T18:38:44.415Z,17.05
2022-09-24T18:40:47.553Z,17.02
2022-09-24T18:42:50.562Z,16.95
2022-09-24T18:44:55.722Z,16.90
2022-09-24T18:46:57.840Z,16.88
2022-09-24T18:49:01.124Z,16.79
2022-09-24T18:51:05.317Z,16.78
2022-09-24T18:53:07.320Z,16.72
2022-09-24T18:55:09.993Z,16.68
2022-09-24T18:57:14.231Z,16.69
2022-09-24T18:59:19.643Z,16.68
2022-09-24T19:01:21.974Z,16.70
2022-09-24T19:03:28.230Z,16.69
2022-09-24T19:05:30.366Z,16.67
2022-09-24T19:07:32.778Z,16.63
2022-09-24T19:09:37.644Z,16.63
2022-09-24T19:11:42.125Z,16.61
2022-09-24T19:13:49.121Z,16.60
2022-09-24T19:15:51.507Z,16.61
2022-09-24T19:17:54.212Z,16.53
2022-09-24T19:19:56.664Z,16.53
2022-09-24T19:21:59.748Z,16.53
2022-09-24T19:24:01.932Z,16.50
2022-09-24T19:26:05.079Z,16.49
2022-09-24T19:28:10.635Z,16.47
2022-09-24T19:30:12.816Z,16.43
2022-09-24T19:32:15.163Z,16.43
2022-09-24T19:34:17.356Z,16.40
2022-09-24T19:36:20.159Z,16.37
2022-09-24T19:38:24.085Z,16.38
2022-09-24T19:40:26.126Z,16.31
2022-09-24T19:42:28.058Z,16.33
2022-09-24T19:44:30.907Z,16.31
2022-09-24T19:46:33.560Z,16.25
2022-09-24T19:48:38.670Z,16.20
2022-09-24T19:50:40.859Z,16.01
2022-09-24T19:52:44.254Z,15.97
2022-09-24T19:54:46.482Z,15.89
2022-09-24T19:56:51.588Z,15.85
2022-09-24T19:58:56.024Z,15.82
2022-09-24T20:01:02.811Z,15.84
2022-09-24T20:03:05.408Z,15.88
2022-09-24T20:05:08.067Z,15.87
2022-09-24T20:07:10.614Z,15.88
2022-09-24T20:09:13.163Z,15.86
2022-09-24T20:11:19.484Z,15.80
2022-09-24T20:13:22.570Z,15.78
2022-09-24T20:15:24.600Z,15.74
2022-09-24T20:17:26.670Z,15.77
2022-09-24T20:19:31.728Z,15.83
2022-09-24T20:21:35.248Z,15.86
2022-09-24T20:23:37.613Z,15.84
2022-09-24T20:25:58.105Z,15.73
2022-09-24T20:28:00.664Z,15.60
2022-09-24T20:30:02.868Z,15.64
2022-09-24T20:32:05.276Z,15.62
2022-09-24T20:34:07.229Z,15.55
2022-09-24T20:36:17.974Z,15.56
2022-09-24T20:38:22.215Z,15.51
2022-09-24T20:40:24.023Z,15.46
2022-09-24T20:42:25.804Z,15.41
2022-09-24T20:44:28.112Z,15.29
2022-09-24T20:46:30.435Z,15.21
2022-09-24T20:48:32.273Z,15.30
2022-09-24T20:50:34.915Z,15.19
2022-09-24T20:52:36.864Z,15.18
2022-09-24T20:54:38.580Z,15.13
2022-09-24T20:56:40.783Z,15.19
2022-09-24T20:58:42.819Z,15.20
2022-09-24T21:00:54.462Z,15.14
2022-09-24T21:02:56.351Z,15.09
2022-09-24T21:04:58.401Z,15.13
2022-09-24T21:07:01.742Z,15.09
2022-09-24T21:09:04.015Z,15.08
2022-09-24T21:11:11.339Z,15.07
2022-09-24T21:13:13.211Z,15.07
2022-09-24T21:15:15.478Z,15.11
2022-09-24T21:17:18.652Z,15.07
2022-09-24T21:19:21.062Z,15.10
2022-09-24T21:21:29.027Z,15.12
2022-09-24T21:23:32.889Z,15.08
2022-09-24T21:25:53.509Z,15.08
2022-09-24T21:27:56.773Z,15.08
2022-09-24T21:29:58.426Z,15.12
2022-09-24T21:32:00.388Z,15.11
2022-09-24T21:34:02.443Z,15.09
2022-09-24T21:36:07.345Z,15.08
2022-09-24T21:38:09.409Z,15.08
2022-09-24T21:40:11.566Z,15.12
2022-09-24T21:42:14.209Z,15.18
2022-09-24T21:44:17.739Z,15.22
2022-09-24T21:46:19.795Z,15.16
2022-09-24T21:48:23.572Z,15.17
2022-09-24T21:50:25.290Z,15.25
2022-09-24T21:52:31.211Z,15.30
2022-09-24T21:54:36.578Z,15.33
2022-09-24T21:56:38.341Z,15.34
2022-09-24T21:58:40.033Z,15.32
2022-09-24T22:00:42.976Z,15.33
2022-09-24T22:02:45.235Z,15.36
2022-09-24T22:04:47.451Z,15.37
2022-09-24T22:06:51.321Z,15.34
2022-09-24T22:08:54.316Z,15.34
2022-09-24T22:11:05.328Z,15.33
2022-09-24T22:13:08.683Z,15.39
2022-09-24T22:15:11.093Z,15.40
2022-09-24T22:17:13.951Z,15.42
2022-09-24T22:19:15.807Z,15.32
2022-09-24T22:21:17.600Z,15.40
2022-09-24T22:23:20.963Z,15.40
2022-09-24T22:25:22.943Z,15.36
2022-09-24T22:27:24.618Z,15.38
2022-09-24T22:29:26.339Z,15.37
2022-09-24T22:31:28.170Z,15.25
2022-09-24T22:33:49.640Z,15.28
2022-09-24T22:35:55.735Z,15.26
2022-09-24T22:37:57.537Z,15.32
2022-09-24T22:39:59.396Z,15.32
2022-09-24T22:42:01.684Z,15.33
2022-09-24T22:44:03.610Z,15.33
2022-09-24T22:46:11.692Z,15.24
2022-09-24T22:48:13.611Z,15.23
2022-09-24T22:50:15.416Z,15.25
2022-09-24T22:52:17.167Z,15.22
2022-09-24T22:54:18.923Z,15.20
2022-09-24T22:56:30.392Z,15.25
2022-09-24T22:58:33.841Z,15.25
2022-09-24T23:00:36.398Z,15.23
2022-09-24T23:02:38.135Z,15.22
2022-09-24T23:04:40.658Z,15.24
2022-09-24T23:06:43.746Z,15.23
2022-09-24T23:08:45.578Z,15.22
2022-09-24T23:10:47.514Z,15.24
2022-09-24T23:12:49.438Z,15.27
2022-09-24T23:14:52.614Z,15.25
2022-09-24T23:16:58.783Z,15.24
2022-09-24T23:19:03.620Z,15.27
2022-09-24T23:21:07.490Z,15.32
2022-09-24T23:23:09.297Z,15.26
2022-09-24T23:25:11.001Z,15.30
2022-09-24T23:27:16.933Z,15.25
2022-09-24T23:29:18.770Z,15.25
2022-09-24T23:31:25.353Z,15.26
2022-09-24T23:33:30.013Z,15.28
2022-09-24T23:35:32.343Z,15.30
2022-09-24T23:37:34.216Z,15.29
2022-09-24T23:39:35.976Z,15.21
2022-09-24T23:41:37.820Z,15.29
2022-09-24T23:43:39.758Z,15.24
2022-09-24T23:45:42.024Z,15.30
2022-09-24T23:47:43.806Z,15.29
2022-09-24T23:49:45.541Z,15.30
2022-09-24T23:51:47.247Z,15.18
2022-09-24T23:53:49.050Z,15.22
2022-09-24T23:55:52.162Z,15.23
2022-09-24T23:57:53.977Z,15.23
2022-09-24T23:59:55.875Z,15.24
